sensor_id;sensor_type;location;lat;lon;timestamp;P1;durP1;ratioP1;P2;durP2;ratioP2
69943;SDS011;57257;48.408;-4.498;2023-10-13T00:01:01;7.25;;;6.25;;
69943;SDS011;57257;48.408;-4.498;2023-10-13T00:03:29;7.75;;;6.75;;
69943;SDS011;57257;48.408;-4.498;2023-10-13T00:05:57;9.00;;;7.00;;
69943;SDS011;57257;48.408;-4.498;2023-10-13T00:08:27;8.75;;;8.75;;
69943;SDS011;57257;48.408;-4.498;2023-10-13T00:10:54;9.00;;;7.00;;
69943;SDS011;57257;48.408;-4.498;2023-10-13T00:13:25;7.50;;;6.75;;
69943;SDS011;57257;48.408;-4.498;2023-10-13T00:15:51;12.50;;;10.50;;
69943;SDS011;57257;48.408;-4.498;2023-10-13T00:18:17;14.50;;;7.25;;
69943;SDS011;57257;48.408;-4.498;2023-10-13T00:20:44;7.00;;;7.00;;
69943;SDS011;57257;48.408;-4.498;2023-10-13T00:23:15;4.00;;;3.25;;
69943;SDS011;57257;48.408;-4.498;2023-10-13T00:25:50;19.00;;;12.00;;
69943;SDS011;57257;48.408;-4.498;2023-10-13T00:28:22;3.50;;;3.50;;
69943;SDS011;57257;48.408;-4.498;2023-10-13T00:31:00;7.50;;;7.50;;
69943;SDS011;57257;48.408;-4.498;2023-10-13T00:33:30;7.75;;;7.25;;
69943;SDS011;57257;48.408;-4.498;2023-10-13T00:35:57;6.75;;;6.75;;
69943;SDS011;57257;48.408;-4.498;2023-10-13T00:38:23;7.00;;;6.75;;
69943;SDS011;57257;48.408;-4.498;2023-10-13T00:40:49;10.25;;;6.25;;
69943;SDS011;57257;48.408;-4.498;2023-10-13T00:43:19;14.75;;;8.75;;
69943;SDS011;57257;48.408;-4.498;2023-10-13T00:45:47;9.25;;;8.50;;
69943;SDS011;57257;48.408;-4.498;2023-10-13T00:48:27;7.00;;;3.50;;
69943;SDS011;57257;48.408;-4.498;2023-10-13T00:50:57;9.00;;;8.00;;
69943;SDS011;57257;48.408;-4.498;2023-10-13T00:53:37;6.00;;;3.00;;
69943;SDS011;57257;48.408;-4.498;2023-10-13T00:56:07;14.00;;;8.75;;
69943;SDS011;57257;48.408;-4.498;2023-10-13T00:58:34;9.25;;;9.25;;
69943;SDS011;57257;48.408;-4.498;2023-10-13T01:01:02;9.25;;;9.25;;
69943;SDS011;57257;48.408;-4.498;2023-10-13T01:03:52;7.00;;;6.50;;
69943;SDS011;57257;48.408;-4.498;2023-10-13T01:06:23;9.75;;;7.00;;
69943;SDS011;57257;48.408;-4.498;2023-10-13T01:09:02;6.00;;;6.00;;
69943;SDS011;57257;48.408;-4.498;2023-10-13T01:11:44;13.00;;;8.75;;
69943;SDS011;57257;48.408;-4.498;2023-10-13T01:14:17;9.00;;;6.25;;
69943;SDS011;57257;48.408;-4.498;2023-10-13T01:16:47;9.00;;;5.00;;
69943;SDS011;57257;48.408;-4.498;2023-10-13T01:19:17;7.00;;;6.00;;
69943;SDS011;57257;48.408;-4.498;2023-10-13T01:21:44;9.75;;;6.00;;
69943;SDS011;57257;48.408;-4.498;2023-10-13T01:24:10;4.50;;;4.50;;
69943;SDS011;57257;48.408;-4.498;2023-10-13T01:26:41;1.00;;;1.00;;
69943;SDS011;57257;48.408;-4.498;2023-10-13T01:29:07;4.50;;;3.00;;
69943;SDS011;57257;48.408;-4.498;2023-10-13T01:31:37;7.50;;;6.75;;
69943;SDS011;57257;48.408;-4.498;2023-10-13T01:34:10;8.75;;;5.00;;
69943;SDS011;57257;48.408;-4.498;2023-10-13T01:36:37;10.25;;;7.50;;
69943;SDS011;57257;48.408;-4.498;2023-10-13T01:39:05;9.50;;;7.00;;
69943;SDS011;57257;48.408;-4.498;2023-10-13T01:41:31;10.00;;;10.00;;
69943;SDS011;57257;48.408;-4.498;2023-10-13T01:43:56;7.75;;;5.50;;
69943;SDS011;57257;48.408;-4.498;2023-10-13T01:46:22;4.50;;;1.00;;
69943;SDS011;57257;48.408;-4.498;2023-10-13T01:48:48;10.50;;;6.25;;
69943;SDS011;57257;48.408;-4.498;2023-10-13T01:51:13;4.75;;;4.50;;
69943;SDS011;57257;48.408;-4.498;2023-10-13T01:53:39;3.25;;;3.25;;
69943;SDS011;57257;48.408;-4.498;2023-10-13T01:56:06;8.50;;;6.25;;
69943;SDS011;57257;48.408;-4.498;2023-10-13T01:58:38;5.00;;;5.00;;
69943;SDS011;57257;48.408;-4.498;2023-10-13T02:01:08;6.25;;;5.00;;
69943;SDS011;57257;48.408;-4.498;2023-10-13T02:03:35;10.00;;;6.25;;
69943;SDS011;57257;48.408;-4.498;2023-10-13T02:06:13;6.50;;;5.50;;
69943;SDS011;57257;48.408;-4.498;2023-10-13T02:08:42;6.50;;;6.50;;
69943;SDS011;57257;48.408;-4.498;2023-10-13T02:11:09;7.50;;;4.25;;
69943;SDS011;57257;48.408;-4.498;2023-10-13T02:13:34;9.50;;;7.50;;
69943;SDS011;57257;48.408;-4.498;2023-10-13T02:16:06;8.00;;;6.00;;
69943;SDS011;57257;48.408;-4.498;2023-10-13T02:18:32;4.25;;;3.25;;
69943;SDS011;57257;48.408;-4.498;2023-10-13T02:21:08;9.00;;;8.25;;
69943;SDS011;57257;48.408;-4.498;2023-10-13T02:23:39;8.50;;;6.25;;
69943;SDS011;57257;48.408;-4.498;2023-10-13T02:26:10;8.75;;;7.50;;
69943;SDS011;57257;48.408;-4.498;2023-10-13T02:28:52;10.50;;;8.25;;
69943;SDS011;57257;48.408;-4.498;2023-10-13T02:31:22;7.00;;;7.00;;
69943;SDS011;57257;48.408;-4.498;2023-10-13T02:33:49;9.00;;;6.25;;
69943;SDS011;57257;48.408;-4.498;2023-10-13T02:36:15;7.00;;;5.00;;
69943;SDS011;57257;48.408;-4.498;2023-10-13T02:38:47;10.75;;;6.50;;
69943;SDS011;57257;48.408;-4.498;2023-10-13T02:41:13;9.75;;;6.00;;
69943;SDS011;57257;48.408;-4.498;2023-10-13T02:43:53;8.75;;;6.50;;
69943;SDS011;57257;48.408;-4.498;2023-10-13T02:46:19;15.50;;;9.00;;
69943;SDS011;57257;48.408;-4.498;2023-10-13T02:48:47;13.00;;;6.75;;
69943;SDS011;57257;48.408;-4.498;2023-10-13T02:51:18;8.25;;;6.75;;
69943;SDS011;57257;48.408;-4.498;2023-10-13T02:53:50;19.00;;;9.50;;
69943;SDS011;57257;48.408;-4.498;2023-10-13T02:56:17;14.50;;;8.25;;
69943;SDS011;57257;48.408;-4.498;2023-10-13T02:58:47;7.50;;;6.50;;
69943;SDS011;57257;48.408;-4.498;2023-10-13T03:01:21;16.00;;;9.00;;
69943;SDS011;57257;48.408;-4.498;2023-10-13T03:03:52;8.50;;;7.25;;
69943;SDS011;57257;48.408;-4.498;2023-10-13T03:06:19;9.25;;;7.00;;
69943;SDS011;57257;48.408;-4.498;2023-10-13T03:08:57;10.00;;;9.00;;
69943;SDS011;57257;48.408;-4.498;2023-10-13T03:11:25;5.00;;;2.00;;
69943;SDS011;57257;48.408;-4.498;2023-10-13T03:13:51;7.50;;;7.25;;
69943;SDS011;57257;48.408;-4.498;2023-10-13T03:16:18;5.00;;;5.00;;
69943;SDS011;57257;48.408;-4.498;2023-10-13T03:18:45;7.00;;;2.50;;
69943;SDS011;57257;48.408;-4.498;2023-10-13T03:21:21;8.50;;;7.50;;
69943;SDS011;57257;48.408;-4.498;2023-10-13T03:23:57;6.50;;;6.25;;
69943;SDS011;57257;48.408;-4.498;2023-10-13T03:26:30;9.00;;;8.75;;
69943;SDS011;57257;48.408;-4.498;2023-10-13T03:29:00;6.00;;;6.00;;
69943;SDS011;57257;48.408;-4.498;2023-10-13T03:31:28;8.00;;;4.00;;
69943;SDS011;57257;48.408;-4.498;2023-10-13T03:33:54;4.00;;;0.25;;
69943;SDS011;57257;48.408;-4.498;2023-10-13T03:36:25;7.00;;;4.50;;
69943;SDS011;57257;48.408;-4.498;2023-10-13T03:39:09;3.00;;;3.00;;
69943;SDS011;57257;48.408;-4.498;2023-10-13T03:41:36;8.00;;;8.00;;
69943;SDS011;57257;48.408;-4.498;2023-10-13T03:44:03;11.75;;;9.75;;
69943;SDS011;57257;48.408;-4.498;2023-10-13T03:46:42;12.25;;;9.00;;
69943;SDS011;57257;48.408;-4.498;2023-10-13T03:49:08;12.75;;;10.50;;
69943;SDS011;57257;48.408;-4.498;2023-10-13T03:51:38;4.00;;;4.00;;
69943;SDS011;57257;48.408;-4.498;2023-10-13T03:54:05;13.75;;;8.50;;
69943;SDS011;57257;48.408;-4.498;2023-10-13T03:56:34;10.00;;;8.00;;
69943;SDS011;57257;48.408;-4.498;2023-10-13T03:59:06;7.50;;;6.50;;
69943;SDS011;57257;48.408;-4.498;2023-10-13T04:01:38;9.25;;;7.00;;
69943;SDS011;57257;48.408;-4.498;2023-10-13T04:04:26;6.00;;;3.00;;
69943;SDS011;57257;48.408;-4.498;2023-10-13T04:07:11;11.00;;;9.00;;
69943;SDS011;57257;48.408;-4.498;2023-10-13T04:09:36;4.25;;;3.50;;
69943;SDS011;57257;48.408;-4.498;2023-10-13T04:12:22;9.50;;;9.50;;
69943;SDS011;57257;48.408;-4.498;2023-10-13T04:15:06;9.00;;;6.25;;
69943;SDS011;57257;48.408;-4.498;2023-10-13T04:17:44;5.50;;;5.50;;
69943;SDS011;57257;48.408;-4.498;2023-10-13T04:20:11;7.00;;;6.00;;
69943;SDS011;57257;48.408;-4.498;2023-10-13T04:22:40;4.00;;;4.00;;
69943;SDS011;57257;48.408;-4.498;2023-10-13T04:25:12;11.00;;;7.00;;
69943;SDS011;57257;48.408;-4.498;2023-10-13T04:27:58;9.50;;;5.75;;
69943;SDS011;57257;48.408;-4.498;2023-10-13T04:33:30;11.50;;;10.00;;
69943;SDS011;57257;48.408;-4.498;2023-10-13T04:38:56;11.25;;;10.50;;
69943;SDS011;57257;48.408;-4.498;2023-10-13T04:41:46;2.50;;;1.50;;
69943;SDS011;57257;48.408;-4.498;2023-10-13T04:44:31;1.00;;;1.00;;
69943;SDS011;57257;48.408;-4.498;2023-10-13T04:47:05;8.75;;;7.75;;
69943;SDS011;57257;48.408;-4.498;2023-10-13T04:49:39;7.25;;;4.00;;
69943;SDS011;57257;48.408;-4.498;2023-10-13T04:52:08;9.25;;;9.00;;
69943;SDS011;57257;48.408;-4.498;2023-10-13T04:54:34;6.00;;;6.00;;
69943;SDS011;57257;48.408;-4.498;2023-10-13T04:57:16;5.50;;;2.00;;
69943;SDS011;57257;48.408;-4.498;2023-10-13T05:00:06;8.00;;;6.50;;
69943;SDS011;57257;48.408;-4.498;2023-10-13T05:02:44;8.00;;;7.00;;
69943;SDS011;57257;48.408;-4.498;2023-10-13T05:05:26;8.00;;;7.50;;
69943;SDS011;57257;48.408;-4.498;2023-10-13T05:08:10;10.50;;;4.00;;
69943;SDS011;57257;48.408;-4.498;2023-10-13T05:10:53;10.00;;;4.00;;
69943;SDS011;57257;48.408;-4.498;2023-10-13T05:13:37;9.25;;;8.50;;
69943;SDS011;57257;48.408;-4.498;2023-10-13T05:16:21;11.00;;;11.00;;
69943;SDS011;57257;48.408;-4.498;2023-10-13T05:19:05;12.50;;;8.25;;
69943;SDS011;57257;48.408;-4.498;2023-10-13T05:21:49;3.25;;;0.00;;
69943;SDS011;57257;48.408;-4.498;2023-10-13T05:24:33;19.50;;;10.50;;
69943;SDS011;57257;48.408;-4.498;2023-10-13T05:27:17;8.75;;;7.25;;
69943;SDS011;57257;48.408;-4.498;2023-10-13T05:30:01;14.25;;;11.25;;
69943;SDS011;57257;48.408;-4.498;2023-10-13T05:32:45;11.75;;;8.75;;
69943;SDS011;57257;48.408;-4.498;2023-10-13T05:35:30;13.00;;;11.50;;
69943;SDS011;57257;48.408;-4.498;2023-10-13T05:38:15;12.00;;;11.25;;
69943;SDS011;57257;48.408;-4.498;2023-10-13T05:41:01;7.75;;;7.75;;
69943;SDS011;57257;48.408;-4.498;2023-10-13T05:43:46;13.50;;;11.00;;
69943;SDS011;57257;48.408;-4.498;2023-10-13T05:46:30;9.00;;;4.75;;
69943;SDS011;57257;48.408;-4.498;2023-10-13T05:49:03;10.75;;;10.75;;
69943;SDS011;57257;48.408;-4.498;2023-10-13T05:51:42;14.25;;;10.25;;
69943;SDS011;57257;48.408;-4.498;2023-10-13T05:54:08;10.00;;;5.00;;
69943;SDS011;57257;48.408;-4.498;2023-10-13T05:56:54;12.25;;;11.75;;
69943;SDS011;57257;48.408;-4.498;2023-10-13T05:59:38;15.00;;;6.00;;
69943;SDS011;57257;48.408;-4.498;2023-10-13T06:02:23;5.75;;;5.75;;
69943;SDS011;57257;48.408;-4.498;2023-10-13T06:05:11;12.00;;;7.25;;
69943;SDS011;57257;48.408;-4.498;2023-10-13T06:07:56;12.00;;;10.50;;
69943;SDS011;57257;48.408;-4.498;2023-10-13T06:10:41;6.75;;;5.25;;
69943;SDS011;57257;48.408;-4.498;2023-10-13T06:13:27;15.00;;;11.00;;
69943;SDS011;57257;48.408;-4.498;2023-10-13T06:16:12;15.25;;;9.75;;
69943;SDS011;57257;48.408;-4.498;2023-10-13T06:18:57;7.50;;;6.25;;
69943;SDS011;57257;48.408;-4.498;2023-10-13T06:21:42;8.50;;;6.75;;
69943;SDS011;57257;48.408;-4.498;2023-10-13T06:24:26;15.25;;;11.25;;
69943;SDS011;57257;48.408;-4.498;2023-10-13T06:27:11;13.00;;;11.25;;
69943;SDS011;57257;48.408;-4.498;2023-10-13T06:29:55;9.50;;;9.00;;
69943;SDS011;57257;48.408;-4.498;2023-10-13T06:32:20;10.75;;;2.75;;
69943;SDS011;57257;48.408;-4.498;2023-10-13T06:34:50;21.25;;;11.75;;
69943;SDS011;57257;48.408;-4.498;2023-10-13T06:37:23;12.50;;;9.75;;
69943;SDS011;57257;48.408;-4.498;2023-10-13T06:40:02;7.00;;;6.75;;
69943;SDS011;57257;48.408;-4.498;2023-10-13T06:42:47;6.25;;;5.50;;
69943;SDS011;57257;48.408;-4.498;2023-10-13T06:45:13;7.00;;;5.75;;
69943;SDS011;57257;48.408;-4.498;2023-10-13T06:47:41;18.25;;;11.00;;
69943;SDS011;57257;48.408;-4.498;2023-10-13T06:52:41;9.50;;;8.50;;
69943;SDS011;57257;48.408;-4.498;2023-10-13T06:55:10;11.50;;;7.75;;
69943;SDS011;57257;48.408;-4.498;2023-10-13T06:57:42;12.25;;;9.25;;
69943;SDS011;57257;48.408;-4.498;2023-10-13T07:00:09;8.75;;;7.50;;
69943;SDS011;57257;48.408;-4.498;2023-10-13T07:02:44;15.00;;;12.00;;
69943;SDS011;57257;48.408;-4.498;2023-10-13T07:05:11;11.00;;;8.00;;
69943;SDS011;57257;48.408;-4.498;2023-10-13T07:07:39;2.25;;;0.00;;
69943;SDS011;57257;48.408;-4.498;2023-10-13T07:10:11;16.25;;;10.50;;
69943;SDS011;57257;48.408;-4.498;2023-10-13T07:12:40;18.50;;;14.50;;
69943;SDS011;57257;48.408;-4.498;2023-10-13T07:15:08;8.75;;;6.00;;
69943;SDS011;57257;48.408;-4.498;2023-10-13T07:17:43;19.00;;;15.00;;
69943;SDS011;57257;48.408;-4.498;2023-10-13T07:20:10;13.00;;;8.75;;
69943;SDS011;57257;48.408;-4.498;2023-10-13T07:22:48;15.00;;;7.00;;
69943;SDS011;57257;48.408;-4.498;2023-10-13T07:25:28;8.50;;;7.25;;
69943;SDS011;57257;48.408;-4.498;2023-10-13T07:27:57;12.75;;;6.25;;
69943;SDS011;57257;48.408;-4.498;2023-10-13T07:30:26;17.25;;;6.00;;
69943;SDS011;57257;48.408;-4.498;2023-10-13T07:32:52;9.00;;;5.00;;
69943;SDS011;57257;48.408;-4.498;2023-10-13T07:35:20;3.00;;;3.00;;
69943;SDS011;57257;48.408;-4.498;2023-10-13T07:37:49;7.00;;;4.00;;
69943;SDS011;57257;48.408;-4.498;2023-10-13T07:40:17;8.50;;;5.75;;
69943;SDS011;57257;48.408;-4.498;2023-10-13T07:42:52;4.00;;;4.00;;
69943;SDS011;57257;48.408;-4.498;2023-10-13T07:45:28;6.75;;;6.75;;
69943;SDS011;57257;48.408;-4.498;2023-10-13T07:48:02;13.75;;;9.25;;
69943;SDS011;57257;48.408;-4.498;2023-10-13T07:50:40;7.00;;;6.25;;
69943;SDS011;57257;48.408;-4.498;2023-10-13T07:53:06;6.25;;;5.50;;
69943;SDS011;57257;48.408;-4.498;2023-10-13T07:55:45;4.25;;;3.25;;
69943;SDS011;57257;48.408;-4.498;2023-10-13T07:58:20;10.50;;;6.50;;
69943;SDS011;57257;48.408;-4.498;2023-10-13T08:00:51;11.00;;;6.50;;
69943;SDS011;57257;48.408;-4.498;2023-10-13T08:03:32;10.25;;;7.75;;
69943;SDS011;57257;48.408;-4.498;2023-10-13T08:06:20;14.50;;;7.00;;
69943;SDS011;57257;48.408;-4.498;2023-10-13T08:08:51;21.25;;;7.00;;
69943;SDS011;57257;48.408;-4.498;2023-10-13T08:11:19;8.00;;;4.25;;
69943;SDS011;57257;48.408;-4.498;2023-10-13T08:13:48;3.75;;;1.00;;
69943;SDS011;57257;48.408;-4.498;2023-10-13T08:16:19;10.50;;;4.00;;
69943;SDS011;57257;48.408;-4.498;2023-10-13T08:18:51;7.75;;;5.75;;
69943;SDS011;57257;48.408;-4.498;2023-10-13T08:21:20;7.50;;;4.50;;
69943;SDS011;57257;48.408;-4.498;2023-10-13T08:23:51;8.00;;;4.00;;
69943;SDS011;57257;48.408;-4.498;2023-10-13T08:26:23;4.25;;;2.75;;
69943;SDS011;57257;48.408;-4.498;2023-10-13T08:29:16;4.50;;;4.00;;
69943;SDS011;57257;48.408;-4.498;2023-10-13T08:31:48;7.50;;;4.25;;
69943;SDS011;57257;48.408;-4.498;2023-10-13T08:34:33;6.25;;;5.00;;
69943;SDS011;57257;48.408;-4.498;2023-10-13T08:37:09;14.25;;;7.00;;
69943;SDS011;57257;48.408;-4.498;2023-10-13T08:39:59;5.25;;;3.25;;
69943;SDS011;57257;48.408;-4.498;2023-10-13T08:45:15;9.75;;;4.50;;
69943;SDS011;57257;48.408;-4.498;2023-10-13T08:47:57;5.00;;;1.00;;
69943;SDS011;57257;48.408;-4.498;2023-10-13T08:50:37;4.00;;;2.75;;
69943;SDS011;57257;48.408;-4.498;2023-10-13T08:53:24;6.00;;;4.00;;
69943;SDS011;57257;48.408;-4.498;2023-10-13T08:58:30;6.00;;;3.00;;
69943;SDS011;57257;48.408;-4.498;2023-10-13T09:01:15;2.75;;;2.75;;
69943;SDS011;57257;48.408;-4.498;2023-10-13T09:04:06;7.00;;;3.00;;
69943;SDS011;57257;48.408;-4.498;2023-10-13T09:06:56;2.25;;;2.25;;
69943;SDS011;57257;48.408;-4.498;2023-10-13T09:09:32;3.00;;;0.25;;
69943;SDS011;57257;48.408;-4.498;2023-10-13T09:12:25;2.50;;;1.00;;
69943;SDS011;57257;48.408;-4.498;2023-10-13T09:14:59;0.75;;;0.00;;
69943;SDS011;57257;48.408;-4.498;2023-10-13T09:17:45;0.00;;;0.00;;
69943;SDS011;57257;48.408;-4.498;2023-10-13T09:20:38;3.00;;;1.00;;
69943;SDS011;57257;48.408;-4.498;2023-10-13T09:23:07;7.00;;;3.00;;
69943;SDS011;57257;48.408;-4.498;2023-10-13T09:25:49;5.75;;;2.00;;
69943;SDS011;57257;48.408;-4.498;2023-10-13T09:28:34;1.00;;;0.00;;
69943;SDS011;57257;48.408;-4.498;2023-10-13T09:31:02;3.00;;;3.00;;
69943;SDS011;57257;48.408;-4.498;2023-10-13T09:33:32;9.75;;;0.50;;
69943;SDS011;57257;48.408;-4.498;2023-10-13T09:36:01;1.00;;;1.00;;
69943;SDS011;57257;48.408;-4.498;2023-10-13T09:38:38;5.25;;;1.00;;
69943;SDS011;57257;48.408;-4.498;2023-10-13T09:41:07;9.00;;;2.50;;
69943;SDS011;57257;48.408;-4.498;2023-10-13T09:43:51;6.50;;;3.00;;
69943;SDS011;57257;48.408;-4.498;2023-10-13T09:46:20;3.50;;;1.75;;
69943;SDS011;57257;48.408;-4.498;2023-10-13T09:48:52;2.50;;;1.00;;
69943;SDS011;57257;48.408;-4.498;2023-10-13T09:51:39;2.00;;;0.50;;
69943;SDS011;57257;48.408;-4.498;2023-10-13T09:54:25;2.50;;;0.75;;
69943;SDS011;57257;48.408;-4.498;2023-10-13T09:56:57;3.50;;;1.00;;
69943;SDS011;57257;48.408;-4.498;2023-10-13T09:59:54;1.00;;;0.00;;
69943;SDS011;57257;48.408;-4.498;2023-10-13T10:02:30;1.00;;;1.00;;
69943;SDS011;57257;48.408;-4.498;2023-10-13T10:04:56;4.00;;;3.00;;
69943;SDS011;57257;48.408;-4.498;2023-10-13T10:07:58;4.00;;;1.00;;
69943;SDS011;57257;48.408;-4.498;2023-10-13T10:10:32;2.50;;;2.50;;
69943;SDS011;57257;48.408;-4.498;2023-10-13T10:13:13;1.00;;;1.00;;
69943;SDS011;57257;48.408;-4.498;2023-10-13T10:15:55;3.00;;;0.00;;
69943;SDS011;57257;48.408;-4.498;2023-10-13T10:18:25;3.50;;;0.00;;
69943;SDS011;57257;48.408;-4.498;2023-10-13T10:20:51;8.50;;;1.50;;
69943;SDS011;57257;48.408;-4.498;2023-10-13T10:23:27;5.50;;;1.00;;
69943;SDS011;57257;48.408;-4.498;2023-10-13T10:26:12;3.00;;;1.50;;
69943;SDS011;57257;48.408;-4.498;2023-10-13T10:28:45;4.25;;;1.50;;
69943;SDS011;57257;48.408;-4.498;2023-10-13T10:31:11;2.75;;;0.25;;
69943;SDS011;57257;48.408;-4.498;2023-10-13T10:33:38;6.50;;;1.00;;
69943;SDS011;57257;48.408;-4.498;2023-10-13T10:36:04;1.00;;;1.00;;
69943;SDS011;57257;48.408;-4.498;2023-10-13T10:38:30;0.75;;;0.75;;
69943;SDS011;57257;48.408;-4.498;2023-10-13T10:41:04;4.50;;;3.00;;
69943;SDS011;57257;48.408;-4.498;2023-10-13T10:43:37;2.75;;;1.00;;
69943;SDS011;57257;48.408;-4.498;2023-10-13T10:48:43;7.50;;;3.25;;
69943;SDS011;57257;48.408;-4.498;2023-10-13T10:51:09;6.50;;;2.00;;
69943;SDS011;57257;48.408;-4.498;2023-10-13T10:53:41;3.25;;;1.00;;
69943;SDS011;57257;48.408;-4.498;2023-10-13T10:56:13;7.00;;;1.50;;
69943;SDS011;57257;48.408;-4.498;2023-10-13T10:58:47;6.00;;;1.00;;
69943;SDS011;57257;48.408;-4.498;2023-10-13T11:01:14;1.00;;;1.00;;
69943;SDS011;57257;48.408;-4.498;2023-10-13T11:03:54;7.00;;;0.25;;
69943;SDS011;57257;48.408;-4.498;2023-10-13T11:06:25;1.00;;;1.00;;
69943;SDS011;57257;48.408;-4.498;2023-10-13T11:09:01;3.75;;;1.00;;
69943;SDS011;57257;48.408;-4.498;2023-10-13T11:11:49;3.75;;;0.00;;
69943;SDS011;57257;48.408;-4.498;2023-10-13T11:14:23;3.50;;;0.50;;
69943;SDS011;57257;48.408;-4.498;2023-10-13T11:16:50;6.00;;;1.75;;
69943;SDS011;57257;48.408;-4.498;2023-10-13T11:19:16;4.00;;;1.00;;
69943;SDS011;57257;48.408;-4.498;2023-10-13T11:21:45;2.75;;;0.00;;
69943;SDS011;57257;48.408;-4.498;2023-10-13T11:24:14;6.00;;;1.00;;
69943;SDS011;57257;48.408;-4.498;2023-10-13T11:26:42;5.25;;;0.75;;
69943;SDS011;57257;48.408;-4.498;2023-10-13T11:29:17;1.25;;;1.00;;
69943;SDS011;57257;48.408;-4.498;2023-10-13T11:31:56;0.00;;;0.00;;
69943;SDS011;57257;48.408;-4.498;2023-10-13T11:34:25;2.75;;;1.00;;
69943;SDS011;57257;48.408;-4.498;2023-10-13T11:36:55;1.25;;;0.25;;
69943;SDS011;57257;48.408;-4.498;2023-10-13T11:39:20;5.75;;;2.50;;
69943;SDS011;57257;48.408;-4.498;2023-10-13T11:41:55;4.25;;;2.75;;
69943;SDS011;57257;48.408;-4.498;2023-10-13T11:44:21;5.00;;;5.00;;
69943;SDS011;57257;48.408;-4.498;2023-10-13T11:46:46;3.25;;;1.00;;
69943;SDS011;57257;48.408;-4.498;2023-10-13T11:49:12;0.50;;;0.00;;
69943;SDS011;57257;48.408;-4.498;2023-10-13T11:51:52;3.25;;;0.00;;
69943;SDS011;57257;48.408;-4.498;2023-10-13T11:54:27;1.00;;;0.00;;
69943;SDS011;57257;48.408;-4.498;2023-10-13T11:56:52;1.00;;;1.00;;
69943;SDS011;57257;48.408;-4.498;2023-10-13T11:59:18;7.50;;;6.50;;
69943;SDS011;57257;48.408;-4.498;2023-10-13T12:01:50;1.25;;;1.25;;
69943;SDS011;57257;48.408;-4.498;2023-10-13T12:04:34;6.50;;;1.00;;
69943;SDS011;57257;48.408;-4.498;2023-10-13T12:07:19;5.50;;;2.75;;
69943;SDS011;57257;48.408;-4.498;2023-10-13T12:09:47;4.50;;;3.00;;
69943;SDS011;57257;48.408;-4.498;2023-10-13T12:12:20;4.00;;;3.00;;
69943;SDS011;57257;48.408;-4.498;2023-10-13T12:14:46;2.50;;;1.00;;
69943;SDS011;57257;48.408;-4.498;2023-10-13T12:17:18;1.50;;;0.50;;
69943;SDS011;57257;48.408;-4.498;2023-10-13T12:20:07;6.00;;;1.50;;
69943;SDS011;57257;48.408;-4.498;2023-10-13T12:22:36;4.50;;;3.75;;
69943;SDS011;57257;48.408;-4.498;2023-10-13T12:25:08;6.00;;;4.00;;
69943;SDS011;57257;48.408;-4.498;2023-10-13T12:27:52;5.75;;;1.50;;
69943;SDS011;57257;48.408;-4.498;2023-10-13T12:30:38;3.50;;;2.00;;
69943;SDS011;57257;48.408;-4.498;2023-10-13T12:33:22;6.25;;;3.00;;
69943;SDS011;57257;48.408;-4.498;2023-10-13T12:36:02;0.75;;;0.75;;
69943;SDS011;57257;48.408;-4.498;2023-10-13T12:38:55;2.25;;;0.00;;
69943;SDS011;57257;48.408;-4.498;2023-10-13T12:41:33;6.25;;;3.00;;
69943;SDS011;57257;48.408;-4.498;2023-10-13T12:44:17;6.00;;;1.25;;
69943;SDS011;57257;48.408;-4.498;2023-10-13T12:47:01;6.50;;;1.00;;
69943;SDS011;57257;48.408;-4.498;2023-10-13T12:49:55;4.50;;;2.25;;
69943;SDS011;57257;48.408;-4.498;2023-10-13T12:52:24;1.00;;;0.00;;
69943;SDS011;57257;48.408;-4.498;2023-10-13T12:54:59;3.50;;;2.75;;
69943;SDS011;57257;48.408;-4.498;2023-10-13T12:57:31;3.25;;;3.00;;
69943;SDS011;57257;48.408;-4.498;2023-10-13T12:59:57;6.25;;;3.25;;
69943;SDS011;57257;48.408;-4.498;2023-10-13T13:02:24;3.00;;;0.00;;
69943;SDS011;57257;48.408;-4.498;2023-10-13T13:04:53;2.00;;;0.00;;
69943;SDS011;57257;48.408;-4.498;2023-10-13T13:07:26;2.50;;;2.50;;
69943;SDS011;57257;48.408;-4.498;2023-10-13T13:09:54;6.25;;;1.50;;
69943;SDS011;57257;48.408;-4.498;2023-10-13T13:12:23;5.00;;;0.50;;
69943;SDS011;57257;48.408;-4.498;2023-10-13T13:14:49;4.00;;;1.00;;
69943;SDS011;57257;48.408;-4.498;2023-10-13T13:17:19;3.25;;;0.25;;
69943;SDS011;57257;48.408;-4.498;2023-10-13T13:19:45;2.50;;;1.00;;
69943;SDS011;57257;48.408;-4.498;2023-10-13T13:22:11;2.50;;;1.00;;
69943;SDS011;57257;48.408;-4.498;2023-10-13T13:24:41;0.00;;;0.00;;
69943;SDS011;57257;48.408;-4.498;2023-10-13T13:27:10;5.00;;;3.50;;
69943;SDS011;57257;48.408;-4.498;2023-10-13T13:29:39;3.75;;;0.25;;
69943;SDS011;57257;48.408;-4.498;2023-10-13T13:32:07;0.25;;;0.00;;
69943;SDS011;57257;48.408;-4.498;2023-10-13T13:34:47;1.75;;;0.00;;
69943;SDS011;57257;48.408;-4.498;2023-10-13T13:37:22;7.00;;;3.00;;
69943;SDS011;57257;48.408;-4.498;2023-10-13T13:39:47;5.00;;;4.25;;
69943;SDS011;57257;48.408;-4.498;2023-10-13T13:42:13;6.00;;;4.50;;
69943;SDS011;57257;48.408;-4.498;2023-10-13T13:44:45;6.25;;;0.00;;
69943;SDS011;57257;48.408;-4.498;2023-10-13T13:47:12;2.00;;;0.75;;
69943;SDS011;57257;48.408;-4.498;2023-10-13T13:49:39;3.00;;;0.50;;
69943;SDS011;57257;48.408;-4.498;2023-10-13T13:52:30;3.50;;;1.00;;
69943;SDS011;57257;48.408;-4.498;2023-10-13T13:55:10;7.75;;;5.00;;
69943;SDS011;57257;48.408;-4.498;2023-10-13T13:57:36;1.75;;;1.25;;
69943;SDS011;57257;48.408;-4.498;2023-10-13T14:00:01;3.00;;;1.50;;
69943;SDS011;57257;48.408;-4.498;2023-10-13T14:02:27;3.75;;;1.00;;
69943;SDS011;57257;48.408;-4.498;2023-10-13T14:04:53;2.00;;;0.50;;
69943;SDS011;57257;48.408;-4.498;2023-10-13T14:07:19;0.00;;;0.00;;
69943;SDS011;57257;48.408;-4.498;2023-10-13T14:09:45;2.50;;;0.75;;
69943;SDS011;57257;48.408;-4.498;2023-10-13T14:12:16;0.75;;;0.00;;
69943;SDS011;57257;48.408;-4.498;2023-10-13T14:14:55;0.00;;;0.00;;
69943;SDS011;57257;48.408;-4.498;2023-10-13T14:17:24;6.75;;;2.75;;
69943;SDS011;57257;48.408;-4.498;2023-10-13T14:19:54;1.00;;;0.00;;
69943;SDS011;57257;48.408;-4.498;2023-10-13T14:22:23;1.50;;;1.00;;
69943;SDS011;57257;48.408;-4.498;2023-10-13T14:24:52;1.50;;;0.00;;
69943;SDS011;57257;48.408;-4.498;2023-10-13T14:27:21;0.50;;;0.25;;
69943;SDS011;57257;48.408;-4.498;2023-10-13T14:29:51;0.75;;;0.25;;
69943;SDS011;57257;48.408;-4.498;2023-10-13T14:32:21;0.00;;;0.00;;
69943;SDS011;57257;48.408;-4.498;2023-10-13T14:34:49;0.50;;;0.50;;
69943;SDS011;57257;48.408;-4.498;2023-10-13T14:37:19;0.00;;;0.00;;
69943;SDS011;57257;48.408;-4.498;2023-10-13T14:39:52;1.00;;;0.00;;
69943;SDS011;57257;48.408;-4.498;2023-10-13T14:42:22;0.00;;;0.00;;
69943;SDS011;57257;48.408;-4.498;2023-10-13T14:44:50;0.75;;;0.75;;
69943;SDS011;57257;48.408;-4.498;2023-10-13T14:47:23;0.75;;;0.00;;
69943;SDS011;57257;48.408;-4.498;2023-10-13T14:49:54;0.00;;;0.00;;
69943;SDS011;57257;48.408;-4.498;2023-10-13T14:52:21;3.75;;;0.00;;
69943;SDS011;57257;48.408;-4.498;2023-10-13T14:54:47;1.00;;;1.00;;
69943;SDS011;57257;48.408;-4.498;2023-10-13T14:57:15;1.00;;;0.00;;
69943;SDS011;57257;48.408;-4.498;2023-10-13T14:59:41;0.00;;;0.00;;
69943;SDS011;57257;48.408;-4.498;2023-10-13T15:02:06;0.00;;;0.00;;
69943;SDS011;57257;48.408;-4.498;2023-10-13T15:04:32;1.00;;;1.00;;
69943;SDS011;57257;48.408;-4.498;2023-10-13T15:06:58;2.00;;;0.00;;
69943;SDS011;57257;48.408;-4.498;2023-10-13T15:09:31;3.00;;;0.00;;
69943;SDS011;57257;48.408;-4.498;2023-10-13T15:11:57;0.00;;;0.00;;
69943;SDS011;57257;48.408;-4.498;2023-10-13T15:14:22;19.50;;;17.00;;
69943;SDS011;57257;48.408;-4.498;2023-10-13T15:16:48;1.50;;;0.00;;
69943;SDS011;57257;48.408;-4.498;2023-10-13T15:19:17;0.00;;;0.00;;
69943;SDS011;57257;48.408;-4.498;2023-10-13T15:21:43;1.00;;;0.00;;
69943;SDS011;57257;48.408;-4.498;2023-10-13T15:24:14;0.00;;;0.00;;